Time;durP1;ratioP1;P1;durP2;ratioP2;P2;SDS_P1;SDS_P2;PMS_P1;PMS_P2;Temp;Humidity;BMP_temperature;BMP_pressure;BME280_temperature;BME280_humidity;BME280_pressure;Samples;Min_cycle;Max_cycle;Signal;HPM_P1;HPM_P2
2023/11/11 00:00:06;;;;;;;7.35;5.10;;;15.80;74.00;;;;;;10415366;28;20381;-58
2023/11/11 00:05:07;;;;;;;6.72;4.38;;;15.80;74.30;;;;;;10415418;28;20033;-59
2023/11/11 00:10:09;;;;;;;8.13;4.95;;;15.80;74.40;;;;;;10414834;28;20032;-59
2023/11/11 00:15:10;;;;;;;8.57;5.13;;;15.80;74.50;;;;;;10415258;28;20047;-58
2023/11/11 00:20:16;;;;;;;7.13;4.10;;;15.70;74.50;;;;;;10414617;28;20034;-59
2023/11/11 00:25:17;;;;;;;9.10;5.13;;;15.80;74.50;;;;;;10413426;28;20458;-58
2023/11/11 00:30:18;;;;;;;8.32;4.60;;;15.70;74.50;;;;;;10425697;28;20061;-58
2023/11/11 00:35:20;;;;;;;7.55;3.83;;;15.70;74.50;;;;;;10414511;28;20057;-59
2023/11/11 00:40:21;;;;;;;8.18;5.18;;;15.70;74.50;;;;;;10395855;28;20035;-59
2023/11/11 00:45:24;;;;;;;6.57;3.83;;;15.70;74.60;;;;;;10412640;28;20036;-58
2023/11/11 00:50:25;;;;;;;7.72;3.90;;;15.70;74.60;;;;;;10413314;28;20034;-59
2023/11/11 00:55:27;;;;;;;6.50;3.78;;;15.70;74.60;;;;;;10413464;28;20029;-58
2023/11/11 01:00:27;;;;;;;5.85;3.92;;;15.70;74.60;;;;;;10412994;28;20087;-59
2023/11/11 01:05:28;;;;;;;7.72;4.40;;;15.70;74.70;;;;;;10413024;28;20087;-58
2023/11/11 01:10:34;;;;;;;6.25;4.40;;;15.60;74.60;;;;;;10411504;28;20022;-58
2023/11/11 01:15:35;;;;;;;11.90;5.53;;;15.70;74.70;;;;;;10412896;28;20034;-59
2023/11/11 01:20:36;;;;;;;6.10;3.30;;;15.60;74.60;;;;;;10412195;28;20037;-59
2023/11/11 01:25:36;;;;;;;5.53;4.25;;;15.60;74.60;;;;;;10412182;28;20033;-59
2023/11/11 01:30:38;;;;;;;6.32;3.90;;;15.60;74.60;;;;;;10411605;28;20049;-59
2023/11/11 01:35:39;;;;;;;6.07;3.10;;;15.60;74.50;;;;;;10411964;28;20048;-59
2023/11/11 01:40:40;;;;;;;5.30;3.65;;;15.60;74.60;;;;;;10411639;28;20033;-59
2023/11/11 01:45:43;;;;;;;5.07;3.30;;;15.60;74.60;;;;;;10411604;28;20033;-59
2023/11/11 01:50:44;;;;;;;4.60;2.97;;;15.60;74.60;;;;;;10411090;28;20029;-59
2023/11/11 01:55:47;;;;;;;5.50;3.97;;;15.60;74.60;;;;;;10411253;28;20071;-59
2023/11/11 02:00:51;;;;;;;6.57;3.67;;;15.60;74.60;;;;;;10410541;28;20021;-59
2023/11/11 02:05:53;;;;;;;4.03;2.60;;;15.50;74.50;;;;;;10409566;28;20025;-59
2023/11/11 02:10:55;;;;;;;5.78;3.70;;;15.60;74.60;;;;;;10409764;28;20042;-59
2023/11/11 02:15:56;;;;;;;6.38;4.53;;;15.50;74.60;;;;;;10410686;28;20013;-59
2023/11/11 02:20:57;;;;;;;5.70;3.00;;;15.50;74.50;;;;;;10392093;28;20053;-59
2023/11/11 02:25:58;;;;;;;6.65;2.92;;;15.50;74.50;;;;;;10410003;28;20033;-59
2023/11/11 02:30:59;;;;;;;5.75;3.15;;;15.50;74.60;;;;;;10407934;28;20412;-58
2023/11/11 02:36:00;;;;;;;5.88;4.15;;;15.50;74.60;;;;;;10409748;28;20029;-59
2023/11/11 02:41:01;;;;;;;4.88;2.67;;;15.50;74.40;;;;;;10409335;28;20038;-59
2023/11/11 02:46:02;;;;;;;5.15;3.08;;;15.50;74.40;;;;;;10409586;28;20029;-58
2023/11/11 02:51:03;;;;;;;4.55;3.03;;;15.40;74.40;;;;;;10409309;28;20033;-59
2023/11/11 02:56:04;;;;;;;6.65;2.67;;;15.50;74.60;;;;;;10409268;28;20028;-59
2023/11/11 03:01:05;;;;;;;5.88;2.80;;;15.50;74.40;;;;;;10408782;28;20148;-59
2023/11/11 03:06:06;;;;;;;7.13;3.38;;;15.50;74.60;;;;;;10409154;28;20048;-59
2023/11/11 03:11:09;;;;;;;4.25;2.45;;;15.40;74.50;;;;;;10408341;28;20044;-59
2023/11/11 03:16:10;;;;;;;4.57;3.20;;;15.50;74.40;;;;;;10409057;28;20029;-59
2023/11/11 03:21:20;;;;;;;3.75;2.13;;;15.40;74.30;;;;;;10408218;28;20424;-58
2023/11/11 03:26:23;;;;;;;4.53;2.35;;;15.40;74.30;;;;;;10408703;28;20092;-59
2023/11/11 03:31:24;;;;;;;5.13;2.45;;;15.40;74.30;;;;;;10411120;28;20045;-58
2023/11/11 03:36:24;;;;;;;3.63;2.05;;;15.40;74.40;;;;;;10416717;28;20025;-58
2023/11/11 03:41:25;;;;;;;4.38;3.30;;;15.40;74.40;;;;;;10416161;28;20480;-59
2023/11/11 03:46:26;;;;;;;3.53;2.13;;;15.40;74.40;;;;;;10416424;28;20037;-58
2023/11/11 03:51:27;;;;;;;2.85;2.03;;;15.40;74.40;;;;;;10415640;28;20056;-59
2023/11/11 03:56:28;;;;;;;3.08;2.17;;;15.40;74.50;;;;;;10415938;28;20030;-59
2023/11/11 04:01:32;;;;;;;3.78;2.22;;;15.40;74.50;;;;;;10415143;28;20040;-59
2023/11/11 04:06:33;;;;;;;3.30;1.90;;;15.30;74.50;;;;;;10415160;28;20029;-59
2023/11/11 04:11:34;;;;;;;3.38;2.40;;;15.30;74.50;;;;;;10414898;28;20461;-59
2023/11/11 04:16:35;;;;;;;2.47;1.55;;;15.30;74.50;;;;;;10415115;28;20523;-59
2023/11/11 04:21:35;;;;;;;3.35;1.90;;;15.30;74.50;;;;;;10414565;28;20025;-59
2023/11/11 04:26:36;;;;;;;3.20;1.48;;;15.30;74.50;;;;;;10414822;28;20037;-59
2023/11/11 04:31:37;;;;;;;3.35;1.75;;;15.30;74.30;;;;;;10427574;28;20042;-58
2023/11/11 04:36:38;;;;;;;3.55;2.13;;;15.30;74.30;;;;;;10414467;28;20469;-59
2023/11/11 04:41:39;;;;;;;3.53;1.67;;;15.30;74.50;;;;;;10412661;28;20030;-58
2023/11/11 04:46:40;;;;;;;2.38;1.52;;;15.30;74.30;;;;;;10414037;28;20057;-58
2023/11/11 04:51:41;;;;;;;4.50;1.88;;;15.30;74.40;;;;;;10413344;28;20025;-59
2023/11/11 04:56:42;;;;;;;3.50;2.13;;;15.30;74.40;;;;;;10413416;28;20072;-58
2023/11/11 05:01:43;;;;;;;3.72;2.30;;;15.30;74.30;;;;;;10413267;28;20036;-58
2023/11/11 05:06:45;;;;;;;2.88;1.73;;;15.30;74.40;;;;;;10411496;28;20033;-59
2023/11/11 05:11:47;;;;;;;3.30;1.95;;;15.30;74.30;;;;;;10412666;28;20480;-59
2023/11/11 05:16:52;;;;;;;3.13;2.00;;;15.20;74.30;;;;;;10412377;28;20025;-59
2023/11/11 05:21:53;;;;;;;4.32;1.42;;;15.20;74.20;;;;;;10412711;28;20480;-59
2023/11/11 05:26:53;;;;;;;2.95;1.48;;;15.20;74.30;;;;;;10411876;28;20052;-58
2023/11/11 05:31:54;;;;;;;2.78;1.63;;;15.20;74.20;;;;;;10423934;28;20531;-59
2023/11/11 05:36:55;;;;;;;2.22;1.40;;;15.20;74.20;;;;;;10431812;28;20377;-58
2023/11/11 05:41:55;;;;;;;1.92;1.33;;;15.20;74.00;;;;;;10421385;28;20541;-58
2023/11/11 05:46:56;;;;;;;2.15;1.17;;;15.30;73.80;;;;;;10417192;28;20055;-59
2023/11/11 05:51:57;;;;;;;3.53;1.48;;;15.60;73.20;;;;;;10426688;28;20029;-59
2023/11/11 05:56:58;;;;;;;3.35;1.27;;;15.80;72.30;;;;;;10421100;28;20033;-59
2023/11/11 06:02:03;;;;;;;3.00;1.50;;;16.10;71.50;;;;;;10411060;28;20078;-59
2023/11/11 06:07:04;;;;;;;2.05;1.08;;;16.20;70.80;;;;;;10410444;28;20029;-59
2023/11/11 06:12:06;;;;;;;2.72;1.30;;;16.40;70.30;;;;;;10410393;28;20040;-58
2023/11/11 06:17:06;;;;;;;2.00;0.77;;;16.60;69.90;;;;;;10409958;28;20029;-59
2023/11/11 06:22:07;;;;;;;3.53;2.28;;;16.70;69.50;;;;;;10410371;28;20408;-58
2023/11/11 06:27:09;;;;;;;6.93;1.42;;;16.70;69.60;;;;;;10409797;28;20526;-57
2023/11/11 06:32:10;;;;;;;3.28;1.25;;;16.80;70.00;;;;;;10421741;28;20056;-56
2023/11/11 06:37:10;;;;;;;7.60;1.33;;;16.90;70.60;;;;;;10408161;28;20069;-56
2023/11/11 06:42:11;;;;;;;12.23;3.08;;;17.10;70.60;;;;;;10412197;28;20719;-55
2023/11/11 06:47:14;;;;;;;8.10;2.47;;;17.30;70.50;;;;;;10407816;28;20045;-55
2023/11/11 06:52:15;;;;;;;14.85;2.40;;;17.40;70.60;;;;;;10406457;28;20079;-56
2023/11/11 06:57:16;;;;;;;16.08;2.78;;;17.50;69.60;;;;;;10407971;28;20079;-56
2023/11/11 07:02:17;;;;;;;10.93;2.60;;;17.40;69.60;;;;;;10410749;28;20028;-57
2023/11/11 07:07:17;;;;;;;11.40;2.33;;;17.50;69.70;;;;;;10407703;28;20033;-56
2023/11/11 07:12:21;;;;;;;15.35;2.42;;;17.60;69.40;;;;;;10420393;28;20031;-57
2023/11/11 07:17:23;;;;;;;6.43;2.53;;;17.60;70.10;;;;;;10432309;28;20029;-56
2023/11/11 07:22:24;;;;;;;8.88;1.80;;;17.60;69.70;;;;;;10408433;28;20065;-57
2023/11/11 07:27:25;;;;;;;12.73;2.55;;;17.60;69.40;;;;;;10408175;28;20111;-56
2023/11/11 07:32:25;;;;;;;11.25;2.10;;;17.60;69.60;;;;;;10407286;28;20041;-56
2023/11/11 07:37:26;;;;;;;14.77;2.08;;;17.60;68.90;;;;;;10407167;28;20427;-56
2023/11/11 07:42:27;;;;;;;9.60;2.60;;;17.70;68.60;;;;;;10407580;28;20053;-55
2023/11/11 07:47:28;;;;;;;9.35;1.83;;;17.80;68.70;;;;;;10407857;28;20022;-56
2023/11/11 07:52:29;;;;;;;17.35;2.42;;;17.80;68.90;;;;;;10413884;28;20037;-56
2023/11/11 07:57:33;;;;;;;15.15;2.92;;;17.70;69.40;;;;;;10406729;28;20017;-56
2023/11/11 08:02:35;;;;;;;22.33;2.25;;;17.80;69.00;;;;;;10407640;28;20040;-56
2023/11/11 08:07:37;;;;;;;13.07;2.08;;;17.70;69.20;;;;;;10406577;28;20032;-56
2023/11/11 08:12:38;;;;;;;16.60;2.53;;;17.80;69.30;;;;;;10406872;28;20041;-55
2023/11/11 08:17:40;;;;;;;11.85;1.98;;;17.70;69.50;;;;;;10409457;28;20026;-57
2023/11/11 08:22:42;;;;;;;14.52;3.13;;;17.60;69.70;;;;;;10413938;28;20064;-57
2023/11/11 08:27:44;;;;;;;16.30;2.78;;;17.40;71.70;;;;;;10412058;28;20039;-57
2023/11/11 08:32:45;;;;;;;22.30;4.15;;;17.30;71.90;;;;;;10425286;28;20051;-55
2023/11/11 08:37:45;;;;;;;22.00;4.03;;;17.10;73.10;;;;;;10412938;28;20040;-57
2023/11/11 08:42:46;;;;;;;12.57;2.22;;;17.00;73.60;;;;;;10412897;28;20025;-56
2023/11/11 08:47:48;;;;;;;18.25;3.85;;;17.10;72.50;;;;;;10412412;28;20032;-57
2023/11/11 08:52:49;;;;;;;36.13;4.55;;;17.00;73.00;;;;;;10412613;28;20164;-57
2023/11/11 08:57:50;;;;;;;28.83;3.95;;;16.90;73.70;;;;;;10412093;28;20022;-57
2023/11/11 09:02:52;;;;;;;24.75;5.82;;;16.90;73.10;;;;;;10412141;28;20106;-57
2023/11/11 09:07:53;;;;;;;25.08;4.05;;;17.10;72.60;;;;;;10412124;28;20033;-57
2023/11/11 09:12:54;;;;;;;21.55;3.67;;;17.10;72.40;;;;;;10411613;28;20025;-57
2023/11/11 09:17:55;;;;;;;24.02;4.97;;;17.20;72.20;;;;;;10411389;28;20030;-57
2023/11/11 09:22:56;;;;;;;28.08;5.15;;;17.20;72.30;;;;;;10425886;28;20029;-57
2023/11/11 09:27:57;;;;;;;24.80;4.75;;;17.00;74.10;;;;;;10410454;28;20025;-57
2023/11/11 09:32:58;;;;;;;24.58;3.35;;;17.00;74.20;;;;;;10412136;28;20480;-56
2023/11/11 09:37:58;;;;;;;21.42;3.15;;;16.90;74.10;;;;;;10418034;28;20120;-57
2023/11/11 09:42:59;;;;;;;18.88;3.97;;;17.10;73.30;;;;;;10425110;28;20025;-57
2023/11/11 09:48:01;;;;;;;18.58;3.55;;;17.10;73.10;;;;;;10389775;28;20038;-56
2023/11/11 09:53:02;;;;;;;24.90;5.75;;;17.20;72.70;;;;;;10410269;28;20041;-57
2023/11/11 09:58:03;;;;;;;33.25;4.78;;;17.10;72.50;;;;;;10409391;28;20040;-57
2023/11/11 10:03:04;;;;;;;8.98;3.45;;;17.10;72.80;;;;;;10408858;28;20476;-57
2023/11/11 10:08:05;;;;;;;22.75;3.13;;;17.00;73.50;;;;;;10411435;28;20068;-58
2023/11/11 10:13:06;;;;;;;18.45;3.42;;;16.90;73.30;;;;;;10411496;28;20040;-57
2023/11/11 10:18:06;;;;;;;12.63;2.45;;;16.90;73.80;;;;;;10418088;28;20079;-57
2023/11/11 10:23:07;;;;;;;16.73;3.33;;;16.90;73.80;;;;;;10419111;28;20033;-57
2023/11/11 10:28:16;;;;;;;19.88;3.47;;;16.80;74.00;;;;;;10408634;28;20040;-58
2023/11/11 10:33:16;;;;;;;28.25;3.38;;;16.90;74.00;;;;;;10409386;28;20045;-57
2023/11/11 10:38:17;;;;;;;12.75;2.85;;;16.90;73.90;;;;;;10409346;28;20021;-58
2023/11/11 10:43:18;;;;;;;15.43;2.72;;;16.90;74.30;;;;;;10407501;28;20033;-58
2023/11/11 10:48:23;;;;;;;12.13;2.80;;;16.90;74.40;;;;;;10407930;28;20082;-57
2023/11/11 10:53:27;;;;;;;15.88;2.63;;;16.80;74.30;;;;;;10409386;28;20037;-57
2023/11/11 10:58:30;;;;;;;17.52;3.03;;;16.90;75.00;;;;;;10407915;28;20052;-57
2023/11/11 11:03:31;;;;;;;9.77;2.33;;;17.00;74.10;;;;;;10405484;28;20033;-58
2023/11/11 11:08:41;;;;;;;9.80;2.15;;;17.10;73.70;;;;;;10405050;28;20060;-57
2023/11/11 11:13:45;;;;;;;10.88;2.22;;;17.30;73.70;;;;;;10404470;28;20026;-57
2023/11/11 11:18:56;;;;;;;12.43;2.70;;;17.50;74.70;;;;;;10407287;28;20127;-57
2023/11/11 11:23:57;;;;;;;14.68;2.70;;;17.50;75.40;;;;;;10407448;28;20032;-56
2023/11/11 11:29:19;;;;;;;10.45;2.42;;;17.60;74.00;;;;;;10405648;28;20030;-56
2023/11/11 11:34:20;;;;;;;11.88;3.03;;;17.50;74.60;;;;;;10406733;28;20061;-55
2023/11/11 11:39:27;;;;;;;13.70;3.30;;;17.50;74.60;;;;;;10418052;28;20435;-56
2023/11/11 11:44:30;;;;;;;11.55;3.40;;;17.70;74.90;;;;;;10420650;28;20038;-55
2023/11/11 11:49:34;;;;;;;10.95;3.63;;;17.60;75.70;;;;;;10411686;28;20044;-56
2023/11/11 11:54:35;;;;;;;12.65;3.08;;;17.60;76.20;;;;;;10413025;28;20439;-57
2023/11/11 11:59:36;;;;;;;16.80;4.32;;;17.40;76.10;;;;;;10413459;28;20086;-56
2023/11/11 12:04:39;;;;;;;12.50;3.53;;;17.40;75.80;;;;;;10416862;28;20029;-56
2023/11/11 12:09:40;;;;;;;21.42;4.55;;;17.30;75.80;;;;;;10415429;28;20036;-55
2023/11/11 12:14:41;;;;;;;20.98;3.65;;;17.10;76.50;;;;;;10413727;28;20037;-56
2023/11/11 12:19:47;;;;;;;20.48;5.38;;;17.00;76.60;;;;;;10413623;28;20542;-55
2023/11/11 12:24:48;;;;;;;20.90;3.95;;;16.90;76.90;;;;;;10413945;28;20056;-56
2023/11/11 12:29:49;;;;;;;25.60;3.90;;;16.90;77.20;;;;;;10412504;28;20053;-55
2023/11/11 12:34:51;;;;;;;23.52;4.63;;;16.90;77.20;;;;;;10413051;28;20029;-56
2023/11/11 12:39:53;;;;;;;19.88;3.13;;;16.90;77.10;;;;;;10412786;28;20080;-54
2023/11/11 12:44:54;;;;;;;14.88;3.47;;;17.00;76.30;;;;;;10413094;28;20037;-55
2023/11/11 12:49:54;;;;;;;20.75;3.55;;;16.90;76.30;;;;;;10412547;28;20035;-55
2023/11/11 12:55:00;;;;;;;14.93;2.95;;;16.90;76.40;;;;;;10412101;28;20504;-54
2023/11/11 13:00:04;;;;;;;11.88;3.38;;;16.80;76.50;;;;;;10411609;28;20038;-56
2023/11/11 13:05:07;;;;;;;12.57;2.85;;;16.70;76.70;;;;;;10409477;28;20401;-56
2023/11/11 13:10:11;;;;;;;13.93;3.33;;;16.60;76.50;;;;;;10410193;28;20033;-57
2023/11/11 13:15:13;;;;;;;12.25;2.97;;;16.60;76.40;;;;;;10411249;28;20030;-56
2023/11/11 13:20:15;;;;;;;9.75;3.20;;;16.60;76.40;;;;;;10410983;28;20029;-56
2023/11/11 13:25:15;;;;;;;8.93;2.20;;;16.50;76.30;;;;;;10411142;28;20037;-57
2023/11/11 13:30:17;;;;;;;9.18;2.70;;;16.50;76.20;;;;;;10443132;28;20060;-55
2023/11/11 13:35:20;;;;;;;11.63;2.33;;;16.50;76.20;;;;;;10411156;28;20032;-56
2023/11/11 13:40:34;;;;;;;7.68;2.00;;;16.50;76.10;;;;;;10410452;28;20033;-56
2023/11/11 13:45:35;;;;;;;7.35;2.35;;;16.40;75.90;;;;;;10410854;28;20477;-57
2023/11/11 13:50:36;;;;;;;14.00;2.35;;;16.40;75.50;;;;;;10410094;28;20036;-55
2023/11/11 13:55:37;;;;;;;3.83;1.27;;;16.50;74.90;;;;;;10410262;28;20373;-56
2023/11/11 14:00:38;;;;;;;7.25;2.00;;;16.60;74.70;;;;;;10409339;28;20029;-56
2023/11/11 14:05:44;;;;;;;6.53;2.10;;;16.70;74.30;;;;;;10409900;28;20358;-56
2023/11/11 14:10:45;;;;;;;6.63;1.58;;;16.70;73.80;;;;;;10409051;28;20061;-55
2023/11/11 14:15:46;;;;;;;9.68;2.47;;;16.80;73.70;;;;;;10409432;28;20066;-56
2023/11/11 14:20:48;;;;;;;7.10;1.83;;;16.80;73.50;;;;;;10409753;28;20347;-57
2023/11/11 14:25:49;;;;;;;5.22;2.70;;;16.90;73.00;;;;;;10409287;28;20104;-57
2023/11/11 14:30:51;;;;;;;6.63;1.33;;;16.90;73.20;;;;;;10420949;28;20045;-57
2023/11/11 14:35:51;;;;;;;4.95;1.38;;;16.90;72.50;;;;;;10408927;28;20822;-56
2023/11/11 14:40:52;;;;;;;4.88;1.27;;;16.90;72.50;;;;;;10407206;28;20033;-57
2023/11/11 14:45:54;;;;;;;7.15;1.38;;;17.00;72.40;;;;;;10408525;28;20052;-57
2023/11/11 14:50:55;;;;;;;5.50;1.20;;;17.00;72.20;;;;;;10407791;28;20471;-56
2023/11/11 14:55:56;;;;;;;2.85;1.00;;;17.00;72.20;;;;;;10408264;28;20032;-57
2023/11/11 15:00:57;;;;;;;3.67;1.63;;;16.90;72.30;;;;;;10407171;28;20025;-56
2023/11/11 15:05:58;;;;;;;3.28;1.20;;;16.90;72.50;;;;;;10407108;28;20051;-57
2023/11/11 15:10:58;;;;;;;4.80;0.88;;;16.90;72.20;;;;;;10407219;28;20528;-56
2023/11/11 15:15:59;;;;;;;2.25;0.90;;;16.90;71.90;;;;;;10407267;28;20365;-57
2023/11/11 15:21:00;;;;;;;3.35;0.85;;;17.00;71.80;;;;;;10406456;28;20043;-56
2023/11/11 15:26:05;;;;;;;3.75;0.98;;;17.00;71.80;;;;;;10405985;28;20041;-56
2023/11/11 15:31:08;;;;;;;4.70;1.70;;;17.00;71.80;;;;;;10413737;28;20049;-57
2023/11/11 15:36:09;;;;;;;2.83;0.90;;;17.00;71.60;;;;;;10415754;28;20037;-57
2023/11/11 15:41:09;;;;;;;1.80;1.00;;;17.10;71.40;;;;;;10413994;28;20535;-57
2023/11/11 15:46:10;;;;;;;3.55;0.80;;;17.10;72.00;;;;;;10414900;28;20386;-56
2023/11/11 15:51:11;;;;;;;2.13;0.93;;;17.20;73.10;;;;;;10413738;28;20041;-56
2023/11/11 15:56:17;;;;;;;2.20;0.85;;;17.20;73.20;;;;;;10412584;28;20126;-57
2023/11/11 16:01:18;;;;;;;2.63;0.90;;;17.10;73.20;;;;;;10412431;28;20068;-55
2023/11/11 16:06:20;;;;;;;5.90;1.23;;;17.00;73.30;;;;;;10412356;28;20037;-56
2023/11/11 16:11:21;;;;;;;7.78;1.30;;;17.00;73.50;;;;;;10404841;28;20044;-55
2023/11/11 16:16:22;;;;;;;10.45;1.55;;;17.10;73.10;;;;;;10373042;28;20057;-55
2023/11/11 16:21:24;;;;;;;8.80;1.90;;;17.20;73.10;;;;;;10407919;28;20041;-55
2023/11/11 16:26:25;;;;;;;8.15;1.40;;;17.20;73.20;;;;;;10409075;28;20116;-55
2023/11/11 16:31:27;;;;;;;12.50;4.80;;;17.10;73.50;;;;;;10408552;28;20041;-57
2023/11/11 16:36:30;;;;;;;5.70;1.98;;;16.90;73.30;;;;;;10401864;28;20061;-56
2023/11/11 16:41:31;;;;;;;5.15;2.05;;;16.90;73.10;;;;;;10395685;28;20526;-57
2023/11/11 16:46:32;;;;;;;5.45;1.58;;;17.10;72.20;;;;;;10406896;28;20041;-56
2023/11/11 16:51:33;;;;;;;9.27;1.58;;;17.30;72.70;;;;;;10405208;28;20025;-56
2023/11/11 16:56:34;;;;;;;6.13;1.88;;;17.50;72.40;;;;;;10411776;28;20018;-57
2023/11/11 17:01:36;;;;;;;12.60;4.45;;;17.60;72.40;;;;;;10411094;28;20033;-56
2023/11/11 17:06:37;;;;;;;10.43;9.38;;;17.70;71.50;;;;;;10412257;28;20037;-56
2023/11/11 17:11:47;;;;;;;25.85;23.95;;;17.80;70.60;;;;;;10411732;28;20038;-56
2023/11/11 17:16:47;;;;;;;18.85;17.05;;;17.80;69.90;;;;;;10410061;28;20599;-56
2023/11/11 17:21:48;;;;;;;13.77;11.77;;;17.90;72.30;;;;;;10411824;28;20082;-55
2023/11/11 17:26:49;;;;;;;13.82;9.50;;;18.00;72.70;;;;;;10411966;28;20047;-55
2023/11/11 17:31:50;;;;;;;21.20;8.95;;;18.00;73.00;;;;;;10411265;28;20067;-56
2023/11/11 17:36:51;;;;;;;11.75;8.85;;;17.80;72.90;;;;;;10410976;28;20094;-57
2023/11/11 17:41:52;;;;;;;11.25;8.93;;;17.70;72.90;;;;;;10411024;28;20385;-56
2023/11/11 17:46:52;;;;;;;12.05;9.32;;;17.60;73.10;;;;;;10410015;28;20427;-56
2023/11/11 17:51:53;;;;;;;14.82;9.63;;;17.70;73.40;;;;;;10404959;28;20526;-56
2023/11/11 17:56:57;;;;;;;12.32;9.80;;;17.60;73.50;;;;;;10402372;28;20481;-58
2023/11/11 18:01:59;;;;;;;12.57;9.77;;;17.50;73.50;;;;;;10409363;28;20036;-57
2023/11/11 18:06:59;;;;;;;15.88;10.70;;;17.50;73.70;;;;;;10410904;28;20034;-58
2023/11/11 18:12:01;;;;;;;12.68;9.85;;;17.40;73.90;;;;;;10410533;28;20037;-58
2023/11/11 18:17:02;;;;;;;10.65;9.65;;;17.40;74.10;;;;;;10410520;28;20025;-57
2023/11/11 18:22:02;;;;;;;9.85;8.95;;;17.30;74.10;;;;;;10410421;28;20388;-58
2023/11/11 18:27:04;;;;;;;11.55;9.70;;;17.20;74.50;;;;;;10409228;28;20516;-55
2023/11/11 18:32:05;;;;;;;21.50;11.43;;;17.20;74.40;;;;;;10422135;28;20076;-57
2023/11/11 18:37:06;;;;;;;12.10;10.35;;;17.20;74.70;;;;;;10408180;28;20041;-56
2023/11/11 18:42:07;;;;;;;12.23;11.30;;;17.10;74.90;;;;;;10408328;28;20400;-56
2023/11/11 18:47:08;;;;;;;72.60;36.40;;;17.10;75.00;;;;;;10407665;28;20037;-56
2023/11/11 18:52:10;;;;;;;50.10;23.90;;;17.00;75.10;;;;;;10407967;28;20022;-57
2023/11/11 18:57:11;;;;;;;47.03;27.15;;;17.00;75.20;;;;;;10405814;28;20065;-58
2023/11/11 19:02:12;;;;;;;54.75;30.08;;;16.90;75.40;;;;;;10399812;28;20057;-56
2023/11/11 19:07:13;;;;;;;55.97;32.72;;;16.80;75.60;;;;;;10401458;28;20033;-56
2023/11/11 19:12:14;;;;;;;46.63;28.80;;;16.80;75.80;;;;;;10406954;28;20040;-57
2023/11/11 19:17:14;;;;;;;45.80;27.90;;;16.70;75.90;;;;;;10408037;28;20017;-57
2023/11/11 19:22:15;;;;;;;44.33;26.85;;;16.70;76.00;;;;;;10408326;28;20456;-55
2023/11/11 19:27:16;;;;;;;38.38;23.63;;;16.60;75.90;;;;;;10408600;28;20029;-55
2023/11/11 19:32:17;;;;;;;39.08;22.08;;;16.60;75.60;;;;;;10399120;28;20045;-56
2023/11/11 19:37:18;;;;;;;31.67;19.83;;;16.70;75.40;;;;;;10406437;28;20555;-56
2023/11/11 19:42:18;;;;;;;32.83;21.08;;;16.70;75.40;;;;;;10407771;28;20035;-57
2023/11/11 19:47:19;;;;;;;29.02;19.45;;;16.80;75.10;;;;;;10407360;28;20025;-55
2023/11/11 19:52:20;;;;;;;29.73;18.98;;;16.80;75.00;;;;;;10405966;28;20075;-57
2023/11/11 19:57:22;;;;;;;35.08;20.40;;;16.80;74.90;;;;;;10403072;28;20475;-55
2023/11/11 20:02:23;;;;;;;29.20;20.52;;;16.90;74.70;;;;;;10403507;28;20112;-56
2023/11/11 20:07:24;;;;;;;35.35;18.00;;;17.00;74.70;;;;;;10406531;28;20029;-55
2023/11/11 20:12:24;;;;;;;28.38;17.60;;;16.90;74.50;;;;;;10406089;28;20033;-57
2023/11/11 20:17:25;;;;;;;28.42;17.27;;;16.90;74.50;;;;;;10424414;28;20033;-57
2023/11/11 20:22:26;;;;;;;27.23;15.98;;;16.90;74.50;;;;;;10414954;28;20036;-57
2023/11/11 20:27:27;;;;;;;24.27;15.23;;;16.80;74.70;;;;;;10414109;28;20044;-56
2023/11/11 20:32:28;;;;;;;22.73;15.50;;;16.80;74.70;;;;;;10428114;28;20042;-56
2023/11/11 20:37:29;;;;;;;19.63;14.88;;;16.70;74.80;;;;;;10414201;28;20035;-55
2023/11/11 20:42:31;;;;;;;28.85;15.60;;;16.60;74.80;;;;;;10414411;28;20033;-56
2023/11/11 20:47:32;;;;;;;22.15;14.52;;;16.60;74.90;;;;;;10413771;28;20034;-56
2023/11/11 20:52:32;;;;;;;21.35;14.02;;;16.60;75.00;;;;;;10413938;28;20042;-57
2023/11/11 20:57:33;;;;;;;26.27;14.05;;;16.60;75.00;;;;;;10413301;28;20039;-57
2023/11/11 21:02:34;;;;;;;20.58;13.80;;;16.50;75.00;;;;;;10412115;28;20025;-57
2023/11/11 21:07:34;;;;;;;19.27;13.30;;;16.40;75.00;;;;;;10412789;28;20021;-55
2023/11/11 21:12:35;;;;;;;18.70;12.63;;;16.40;75.00;;;;;;10413051;28;20036;-57
2023/11/11 21:17:37;;;;;;;22.00;13.55;;;16.40;75.10;;;;;;10412657;28;20097;-57
2023/11/11 21:22:37;;;;;;;19.48;13.88;;;16.40;75.10;;;;;;10412955;28;20419;-57
2023/11/11 21:27:38;;;;;;;19.73;11.20;;;16.40;75.20;;;;;;10411352;28;20091;-57
2023/11/11 21:32:40;;;;;;;22.85;12.98;;;16.30;75.20;;;;;;10425227;28;20393;-57
2023/11/11 21:37:41;;;;;;;16.10;11.63;;;16.30;75.20;;;;;;10412111;28;20025;-57
2023/11/11 21:42:42;;;;;;;23.52;11.75;;;16.20;75.20;;;;;;10411795;28;20030;-57
2023/11/11 21:47:42;;;;;;;18.67;10.68;;;16.20;75.20;;;;;;10411532;28;20043;-57
2023/11/11 21:52:43;;;;;;;16.13;12.23;;;16.20;75.40;;;;;;10411476;28;20167;-57
2023/11/11 21:57:45;;;;;;;19.52;11.18;;;16.20;75.40;;;;;;10411080;28;20034;-56
2023/11/11 22:02:45;;;;;;;14.18;10.20;;;16.10;75.30;;;;;;10411419;28;20521;-58
2023/11/11 22:07:46;;;;;;;18.75;11.88;;;16.10;75.30;;;;;;10410696;28;20026;-57
2023/11/11 22:12:47;;;;;;;13.73;9.80;;;16.10;75.30;;;;;;10410792;28;20030;-57
2023/11/11 22:17:48;;;;;;;14.88;9.98;;;16.10;75.30;;;;;;10410372;28;20026;-57
2023/11/11 22:22:49;;;;;;;13.75;9.73;;;16.10;75.30;;;;;;10410590;28;20026;-56
2023/11/11 22:27:50;;;;;;;14.07;9.70;;;16.10;75.20;;;;;;10410537;28;20029;-57
2023/11/11 22:32:51;;;;;;;12.85;9.73;;;16.00;75.10;;;;;;10423433;28;20068;-56
2023/11/11 22:37:52;;;;;;;17.73;10.05;;;16.00;75.30;;;;;;10409523;28;20029;-56
2023/11/11 22:42:53;;;;;;;12.93;9.00;;;16.00;75.30;;;;;;10409959;28;20453;-55
2023/11/11 22:47:57;;;;;;;12.20;9.15;;;16.00;75.20;;;;;;10409358;28;20033;-56
2023/11/11 22:52:58;;;;;;;12.68;8.73;;;16.00;75.20;;;;;;10408673;28;20032;-57
2023/11/11 22:57:59;;;;;;;14.43;9.52;;;16.00;75.20;;;;;;10409153;28;20032;-57
2023/11/11 23:03:01;;;;;;;12.85;9.07;;;16.00;75.20;;;;;;10409471;28;20044;-57
2023/11/11 23:08:04;;;;;;;10.88;7.32;;;15.90;75.20;;;;;;10408728;28;20060;-57
2023/11/11 23:13:05;;;;;;;13.85;7.97;;;15.90;75.10;;;;;;10409075;28;20373;-56
2023/11/11 23:18:09;;;;;;;11.43;7.68;;;15.90;75.20;;;;;;10408768;28;20069;-57
2023/11/11 23:23:10;;;;;;;12.32;7.55;;;15.90;75.20;;;;;;10408846;28;20032;-57
2023/11/11 23:28:12;;;;;;;11.20;8.10;;;15.90;75.10;;;;;;10408342;28;20032;-56
2023/11/11 23:33:12;;;;;;;10.23;6.82;;;15.90;75.20;;;;;;10421394;28;20092;-56
2023/11/11 23:38:13;;;;;;;13.45;7.43;;;15.80;75.30;;;;;;10408155;28;20087;-56
2023/11/11 23:43:15;;;;;;;10.68;7.80;;;15.80;75.20;;;;;;10408648;28;20033;-56
2023/11/11 23:48:19;;;;;;;10.82;7.30;;;15.90;75.10;;;;;;10410659;28;20033;-57
2023/11/11 23:53:20;;;;;;;11.00;6.95;;;15.80;75.20;;;;;;10416444;28;20069;-56
2023/11/11 23:58:21;;;;;;;14.05;7.45;;;15.80;75.10;;;;;;10415696;28;20049;-56
